createdAt,value
2017-11-07T00:00:34.243Z,1020.34
2017-11-07T00:01:34.196Z,1020.29
2017-11-07T00:02:34.242Z,1020.38
2017-11-07T00:03:34.205Z,1020.33
2017-11-07T00:04:34.254Z,1020.36
2017-11-07T00:05:34.200Z,1020.38
2017-11-07T00:06:34.285Z,1020.35
2017-11-07T00:07:34.213Z,1020.34
2017-11-07T00:08:34.284Z,1020.32
2017-11-07T00:09:34.217Z,1020.34
2017-11-07T00:10:34.330Z,1020.28
2017-11-07T00:11:34.226Z,1020.28
2017-11-07T00:12:34.308Z,1020.27
2017-11-07T00:13:34.241Z,1020.24
2017-11-07T00:14:34.336Z,1020.27
2017-11-07T00:15:34.244Z,1020.22
2017-11-07T00:16:34.335Z,1020.20
2017-11-07T00:17:34.250Z,1020.20
2017-11-07T00:18:34.357Z,1020.16
2017-11-07T00:19:34.250Z,1020.17
2017-11-07T00:20:34.365Z,1020.14
2017-11-07T00:21:34.266Z,1020.15
2017-11-07T00:22:34.376Z,1020.12
2017-11-07T00:23:34.267Z,1020.12
2017-11-07T00:24:34.285Z,1020.11
2017-11-07T00:25:34.279Z,1020.12
2017-11-07T00:26:34.300Z,1020.07
2017-11-07T00:27:34.279Z,1020.13
2017-11-07T00:28:34.313Z,1020.07
2017-11-07T00:29:34.311Z,1020.06
2017-11-07T00:30:34.329Z,1020.06
2017-11-07T00:31:34.295Z,1020.05
2017-11-07T00:32:34.343Z,1020.01
2017-11-07T00:33:34.302Z,1020.04
2017-11-07T00:34:34.360Z,1020.00
2017-11-07T00:35:34.317Z,1020.06
2017-11-07T00:36:34.365Z,1020.06
2017-11-07T00:37:34.315Z,1020.02
2017-11-07T00:38:34.386Z,1019.97
2017-11-07T00:39:34.325Z,1019.95
2017-11-07T00:40:34.395Z,1020.00
2017-11-07T00:41:34.329Z,1019.93
2017-11-07T00:42:34.427Z,1019.83
2017-11-07T00:43:34.364Z,1019.92
2017-11-07T00:44:34.419Z,1019.87
2017-11-07T00:45:34.346Z,1019.92
2017-11-07T00:46:34.439Z,1019.99
2017-11-07T00:47:34.366Z,1019.90
2017-11-07T00:48:34.444Z,1019.90
2017-11-07T00:49:34.353Z,1019.84
2017-11-07T00:50:34.463Z,1019.89
2017-11-07T00:51:34.368Z,1019.88
2017-11-07T00:52:34.480Z,1019.83
2017-11-07T00:53:34.379Z,1019.79
2017-11-07T00:54:34.494Z,1019.81
2017-11-07T00:55:34.389Z,1019.82
2017-11-07T00:56:34.406Z,1019.81
2017-11-07T00:57:34.387Z,1019.82
2017-11-07T00:58:34.408Z,1019.83
2017-11-07T00:59:34.387Z,1019.82
2017-11-07T01:00:34.427Z,1019.81
2017-11-07T01:01:34.405Z,1019.75
2017-11-07T01:02:34.453Z,1019.74
2017-11-07T01:03:34.406Z,1019.77
2017-11-07T01:04:34.455Z,1019.81
2017-11-07T01:05:34.415Z,1019.84
2017-11-07T01:06:34.464Z,1019.83
2017-11-07T01:07:34.436Z,1019.84
2017-11-07T01:08:34.519Z,1019.92
2017-11-07T01:09:34.429Z,1019.87
2017-11-07T01:10:34.498Z,1019.90
2017-11-07T01:11:34.437Z,1019.79
2017-11-07T01:12:34.516Z,1019.88
2017-11-07T01:13:34.444Z,1019.84
2017-11-07T01:14:35.580Z,1019.89
2017-11-07T01:15:34.488Z,1019.83
2017-11-07T01:16:34.545Z,1019.92
2017-11-07T01:17:34.457Z,1019.84
2017-11-07T01:18:35.583Z,1019.79
2017-11-07T01:19:34.485Z,1019.82
2017-11-07T01:20:34.571Z,1019.84
2017-11-07T01:21:34.472Z,1019.78
2017-11-07T01:22:34.976Z,1019.79
2017-11-07T01:23:34.483Z,1019.78
2017-11-07T01:24:34.596Z,1019.82
2017-11-07T01:25:34.481Z,1019.81
2017-11-07T01:26:34.504Z,1019.75
2017-11-07T01:27:34.481Z,1019.82
2017-11-07T01:28:34.518Z,1019.80
2017-11-07T01:29:34.488Z,1019.80
2017-11-07T01:30:34.530Z,1019.74
2017-11-07T01:31:34.510Z,1019.74
2017-11-07T01:32:34.544Z,1019.72
2017-11-07T01:33:34.510Z,1019.74
2017-11-07T01:34:34.555Z,1019.69
2017-11-07T01:35:34.520Z,1019.68
2017-11-07T01:36:34.568Z,1019.63
2017-11-07T01:37:34.530Z,1019.66
2017-11-07T01:38:34.597Z,1019.67
2017-11-07T01:39:34.543Z,1019.67
2017-11-07T01:40:34.600Z,1019.66
2017-11-07T01:41:34.530Z,1019.64
2017-11-07T01:42:34.626Z,1019.58
2017-11-07T01:43:34.566Z,1019.64
2017-11-07T01:44:34.624Z,1019.63
2017-11-07T01:45:34.555Z,1019.62
2017-11-07T01:46:34.639Z,1019.60
2017-11-07T01:47:34.553Z,1019.58
2017-11-07T01:48:34.650Z,1019.54
2017-11-07T01:49:34.565Z,1019.54
2017-11-07T01:50:34.661Z,1019.58
2017-11-07T01:51:34.569Z,1019.53
2017-11-07T01:52:34.684Z,1019.52
2017-11-07T01:53:34.582Z,1019.53
2017-11-07T01:54:34.698Z,1019.47
2017-11-07T01:55:34.590Z,1019.43
2017-11-07T01:56:34.600Z,1019.44
2017-11-07T01:57:34.586Z,1019.46
2017-11-07T01:58:34.613Z,1019.48
2017-11-07T01:59:34.592Z,1019.48
2017-11-07T02:00:34.627Z,1019.46
2017-11-07T02:01:34.599Z,1019.40
2017-11-07T02:02:34.644Z,1019.39
2017-11-07T02:03:34.608Z,1019.42
2017-11-07T02:04:34.669Z,1019.37
2017-11-07T02:05:34.624Z,1019.35
2017-11-07T02:06:34.666Z,1019.43
2017-11-07T02:07:34.622Z,1019.43
2017-11-07T02:08:34.692Z,1019.42
2017-11-07T02:09:34.629Z,1019.39
2017-11-07T02:10:35.732Z,1019.44
2017-11-07T02:11:34.640Z,1019.38
2017-11-07T02:12:34.714Z,1019.43
2017-11-07T02:13:34.634Z,1019.41
2017-11-07T02:14:34.729Z,1019.37
2017-11-07T02:15:34.647Z,1019.37
2017-11-07T02:16:34.736Z,1019.45
2017-11-07T02:17:34.665Z,1019.39
2017-11-07T02:18:34.758Z,1019.39
2017-11-07T02:19:34.660Z,1019.36
2017-11-07T02:20:34.773Z,1019.43
2017-11-07T02:21:34.667Z,1019.43
2017-11-07T02:22:34.802Z,1019.47
2017-11-07T02:23:34.669Z,1019.49
2017-11-07T02:24:34.691Z,1019.49
2017-11-07T02:25:34.682Z,1019.47
2017-11-07T02:26:34.706Z,1019.44
2017-11-07T02:27:34.694Z,1019.40
2017-11-07T02:28:34.718Z,1019.44
2017-11-07T02:29:34.687Z,1019.44
2017-11-07T02:30:34.765Z,1019.45
2017-11-07T02:31:34.708Z,1019.47
2017-11-07T02:32:34.748Z,1019.45
2017-11-07T02:33:34.708Z,1019.45
2017-11-07T02:34:34.790Z,1019.46
2017-11-07T02:35:34.709Z,1019.44
2017-11-07T02:36:34.803Z,1019.48
2017-11-07T02:37:34.711Z,1019.46
2017-11-07T02:38:34.800Z,1019.45
2017-11-07T02:39:34.725Z,1019.52
2017-11-07T02:40:34.830Z,1019.50
2017-11-07T02:41:34.732Z,1019.49
2017-11-07T02:42:34.788Z,1019.46
2017-11-07T02:43:34.734Z,1019.50
2017-11-07T02:44:34.803Z,1019.53
2017-11-07T02:45:34.736Z,1019.48
2017-11-07T02:46:34.800Z,1019.50
2017-11-07T02:47:34.747Z,1019.53
2017-11-07T02:48:34.815Z,1019.47
2017-11-07T02:49:34.759Z,1019.47
2017-11-07T02:50:34.830Z,1019.47
2017-11-07T02:51:34.755Z,1019.45
2017-11-07T02:52:34.842Z,1019.41
2017-11-07T02:53:34.786Z,1019.35
2017-11-07T02:54:34.857Z,1019.37
2017-11-07T02:55:34.798Z,1019.37
2017-11-07T02:56:34.883Z,1019.39
2017-11-07T02:57:34.782Z,1019.42
2017-11-07T02:58:34.879Z,1019.35
2017-11-07T02:59:34.785Z,1019.34
2017-11-07T03:00:34.892Z,1019.31
2017-11-07T03:01:34.799Z,1019.29
2017-11-07T03:02:34.913Z,1019.22
2017-11-07T03:03:34.810Z,1019.25
2017-11-07T03:04:35.845Z,1019.21
2017-11-07T03:05:34.802Z,1019.28
2017-11-07T03:06:34.835Z,1019.23
2017-11-07T03:07:34.826Z,1019.23
2017-11-07T03:08:34.858Z,1019.23
2017-11-07T03:09:34.821Z,1019.19
2017-11-07T03:10:34.865Z,1019.17
2017-11-07T03:11:34.817Z,1019.22
2017-11-07T03:12:34.874Z,1019.18
2017-11-07T03:13:34.838Z,1019.20
2017-11-07T03:14:34.895Z,1019.15
2017-11-07T03:15:34.850Z,1019.17
2017-11-07T03:16:34.897Z,1019.16
2017-11-07T03:17:34.868Z,1019.15
2017-11-07T03:18:34.919Z,1019.13
2017-11-07T03:19:34.878Z,1019.16
2017-11-07T03:20:34.930Z,1019.11
2017-11-07T03:21:34.854Z,1019.14
2017-11-07T03:22:34.973Z,1019.19
2017-11-07T03:23:34.862Z,1019.12
2017-11-07T03:24:34.967Z,1019.10
2017-11-07T03:25:34.875Z,1019.08
2017-11-07T03:26:34.980Z,1019.10
2017-11-07T03:27:34.876Z,1019.08
2017-11-07T03:28:34.987Z,1019.09
2017-11-07T03:29:34.873Z,1019.08
2017-11-07T03:30:35.026Z,1019.09
2017-11-07T03:31:34.888Z,1019.06
2017-11-07T03:32:34.909Z,1019.04
2017-11-07T03:33:34.927Z,1018.99
2017-11-07T03:34:34.937Z,1019.01
2017-11-07T03:35:34.896Z,1019.00
2017-11-07T03:36:34.933Z,1019.06
2017-11-07T03:37:34.908Z,1019.05
2017-11-07T03:38:34.961Z,1019.09
2017-11-07T03:39:34.913Z,1019.03
2017-11-07T03:40:34.969Z,1019.05
2017-11-07T03:41:34.918Z,1019.04
2017-11-07T03:42:34.971Z,1019.06
2017-11-07T03:43:34.921Z,1019.03
2017-11-07T03:44:36.010Z,1019.05
2017-11-07T03:45:34.927Z,1019.06
2017-11-07T03:46:35.002Z,1019.03
2017-11-07T03:47:34.927Z,1018.99
2017-11-07T03:48:35.015Z,1019.01
2017-11-07T03:49:34.941Z,1019.01
2017-11-07T03:50:35.032Z,1019.02
2017-11-07T03:51:34.943Z,1018.98
2017-11-07T03:52:35.062Z,1018.94
2017-11-07T03:53:34.957Z,1018.95
2017-11-07T03:54:35.064Z,1018.92
2017-11-07T03:55:34.961Z,1019.00
2017-11-07T03:56:35.069Z,1019.00
2017-11-07T03:57:34.970Z,1019.03
2017-11-07T03:58:34.982Z,1018.94
2017-11-07T03:59:34.966Z,1018.94
2017-11-07T04:00:34.994Z,1018.95
2017-11-07T04:01:34.973Z,1018.96
2017-11-07T04:02:35.008Z,1018.93
2017-11-07T04:03:35.008Z,1018.91
2017-11-07T04:04:35.021Z,1018.90
2017-11-07T04:05:34.985Z,1018.90
2017-11-07T04:06:35.037Z,1018.89
2017-11-07T04:07:34.996Z,1018.91
2017-11-07T04:08:35.092Z,1018.96
2017-11-07T04:09:35.000Z,1018.92
2017-11-07T04:10:35.063Z,1018.94
2017-11-07T04:11:35.005Z,1018.89
2017-11-07T04:12:35.078Z,1018.95
2017-11-07T04:13:35.013Z,1018.91
2017-11-07T04:14:35.087Z,1018.91
2017-11-07T04:15:35.014Z,1018.93
2017-11-07T04:16:35.102Z,1018.93
2017-11-07T04:17:35.027Z,1018.96
2017-11-07T04:18:35.129Z,1018.95
2017-11-07T04:19:35.030Z,1018.92
2017-11-07T04:20:35.128Z,1018.92
2017-11-07T04:21:35.035Z,1018.94
2017-11-07T04:22:35.159Z,1018.96
2017-11-07T04:23:35.042Z,1018.92
2017-11-07T04:24:35.154Z,1018.91
2017-11-07T04:25:35.054Z,1018.97
2017-11-07T04:26:35.067Z,1018.96
2017-11-07T04:27:35.056Z,1018.94
2017-11-07T04:28:35.083Z,1018.91
2017-11-07T04:29:35.076Z,1018.89
2017-11-07T04:30:35.092Z,1018.87
2017-11-07T04:31:35.064Z,1018.86
2017-11-07T04:32:35.113Z,1018.88
2017-11-07T04:33:35.083Z,1018.87
2017-11-07T04:34:35.128Z,1018.84
2017-11-07T04:35:35.085Z,1018.83
2017-11-07T04:36:35.135Z,1018.86
2017-11-07T04:37:35.101Z,1018.88
2017-11-07T04:38:35.155Z,1018.81
2017-11-07T04:39:35.084Z,1018.81
2017-11-07T04:40:35.159Z,1018.80
2017-11-07T04:41:35.099Z,1018.81
2017-11-07T04:42:35.191Z,1018.80
2017-11-07T04:43:35.102Z,1018.84
2017-11-07T04:44:35.190Z,1018.87
2017-11-07T04:45:35.113Z,1018.86
2017-11-07T04:46:35.204Z,1018.88
2017-11-07T04:47:35.109Z,1018.88
2017-11-07T04:48:35.214Z,1018.85
2017-11-07T04:49:35.112Z,1018.87
2017-11-07T04:50:35.230Z,1018.88
2017-11-07T04:51:35.118Z,1018.83
2017-11-07T04:52:35.142Z,1018.89
2017-11-07T04:53:35.131Z,1018.85
2017-11-07T04:54:35.152Z,1018.89
2017-11-07T04:55:35.134Z,1018.88
2017-11-07T04:56:35.173Z,1018.87
2017-11-07T04:57:35.136Z,1018.86
2017-11-07T04:58:36.205Z,1018.87
2017-11-07T04:59:35.147Z,1018.90
2017-11-07T05:00:35.202Z,1018.84
2017-11-07T05:01:35.147Z,1018.80
2017-11-07T05:02:35.208Z,1018.84
2017-11-07T05:03:35.160Z,1018.87
2017-11-07T05:04:35.221Z,1018.82
2017-11-07T05:05:35.165Z,1018.82
2017-11-07T05:06:35.260Z,1018.84
2017-11-07T05:07:35.167Z,1018.83
2017-11-07T05:08:35.254Z,1018.88
2017-11-07T05:09:35.171Z,1018.85
2017-11-07T05:10:35.288Z,1018.85
2017-11-07T05:11:35.181Z,1018.86
2017-11-07T05:12:35.281Z,1018.91
2017-11-07T05:13:35.203Z,1018.91
2017-11-07T05:14:35.292Z,1018.89
2017-11-07T05:15:35.198Z,1018.92
2017-11-07T05:16:35.307Z,1018.95
2017-11-07T05:17:35.197Z,1018.97
2017-11-07T05:18:35.219Z,1019.04
2017-11-07T05:19:35.205Z,1019.02
2017-11-07T05:20:36.252Z,1019.06
2017-11-07T05:21:35.204Z,1019.01
2017-11-07T05:22:35.241Z,1019.03
2017-11-07T05:23:35.215Z,1018.97
2017-11-07T05:24:36.280Z,1018.99
2017-11-07T05:25:35.215Z,1018.97
2017-11-07T05:26:35.285Z,1018.99
2017-11-07T05:27:35.229Z,1018.95
2017-11-07T05:28:35.295Z,1019.01
2017-11-07T05:29:35.224Z,1018.97
2017-11-07T05:30:35.316Z,1018.97
2017-11-07T05:31:35.234Z,1018.98
2017-11-07T05:32:35.312Z,1019.01
2017-11-07T05:33:35.253Z,1019.00
2017-11-07T05:34:35.338Z,1018.97
2017-11-07T05:35:35.249Z,1018.98
2017-11-07T05:36:35.340Z,1018.95
2017-11-07T05:37:35.261Z,1018.98
2017-11-07T05:38:35.353Z,1018.98
2017-11-07T05:39:35.258Z,1018.99
2017-11-07T05:40:35.368Z,1019.02
2017-11-07T05:41:35.266Z,1018.96
2017-11-07T05:42:35.388Z,1018.96
2017-11-07T05:43:35.266Z,1018.92
2017-11-07T05:44:35.324Z,1018.97
2017-11-07T05:45:35.273Z,1018.96
2017-11-07T05:46:35.307Z,1018.93
2017-11-07T05:47:35.285Z,1018.91
2017-11-07T05:48:35.320Z,1018.98
2017-11-07T05:49:35.285Z,1018.96
2017-11-07T05:50:35.338Z,1018.98
2017-11-07T05:51:35.327Z,1018.95
2017-11-07T05:52:35.359Z,1019.03
2017-11-07T05:53:35.297Z,1018.97
2017-11-07T05:54:35.355Z,1018.99
2017-11-07T05:55:35.313Z,1018.96
2017-11-07T05:56:35.371Z,1018.98
2017-11-07T05:57:35.314Z,1018.95
2017-11-07T05:58:35.387Z,1018.95
2017-11-07T05:59:35.332Z,1018.99
2017-11-07T06:00:35.398Z,1018.98
2017-11-07T06:01:35.320Z,1018.97
2017-11-07T06:02:35.419Z,1019.00
2017-11-07T06:03:35.333Z,1018.99
2017-11-07T06:04:35.430Z,1018.90
2017-11-07T06:05:35.328Z,1018.92
2017-11-07T06:06:36.368Z,1018.92
2017-11-07T06:07:35.334Z,1018.92
2017-11-07T06:08:35.354Z,1018.88
2017-11-07T06:09:35.339Z,1018.91
2017-11-07T06:10:35.468Z,1018.91
2017-11-07T06:11:35.353Z,1018.91
2017-11-07T06:12:35.382Z,1018.95
2017-11-07T06:13:35.381Z,1018.94
2017-11-07T06:14:35.422Z,1018.91
2017-11-07T06:15:35.362Z,1018.89
2017-11-07T06:16:35.418Z,1018.85
2017-11-07T06:17:35.371Z,1018.88
2017-11-07T06:18:35.470Z,1018.90
2017-11-07T06:19:35.371Z,1018.92
2017-11-07T06:20:35.437Z,1018.87
2017-11-07T06:21:35.371Z,1018.82
2017-11-07T06:22:35.443Z,1018.79
2017-11-07T06:23:35.378Z,1018.73
2017-11-07T06:24:35.456Z,1018.80
2017-11-07T06:25:35.386Z,1018.87
2017-11-07T06:26:35.483Z,1018.79
2017-11-07T06:27:35.438Z,1018.82
2017-11-07T06:28:35.486Z,1018.80
2017-11-07T06:29:35.397Z,1018.83
2017-11-07T06:30:35.503Z,1018.89
2017-11-07T06:31:35.403Z,1018.86
2017-11-07T06:32:35.513Z,1018.78
2017-11-07T06:33:35.405Z,1018.80
2017-11-07T06:34:35.455Z,1018.77
2017-11-07T06:35:35.417Z,1018.78
2017-11-07T06:36:35.450Z,1018.81
2017-11-07T06:37:35.418Z,1018.78
2017-11-07T06:38:35.459Z,1018.78
2017-11-07T06:39:35.435Z,1018.81
2017-11-07T06:40:35.481Z,1018.84
2017-11-07T06:41:35.445Z,1018.80
2017-11-07T06:42:35.482Z,1018.78
2017-11-07T06:43:35.443Z,1018.77
2017-11-07T06:44:35.496Z,1018.78
2017-11-07T06:45:35.439Z,1018.80
2017-11-07T06:46:35.465Z,1018.82
2017-11-07T06:47:35.451Z,1018.81
2017-11-07T06:48:35.476Z,1018.78
2017-11-07T06:49:35.450Z,1018.81
2017-11-07T06:50:35.494Z,1018.85
2017-11-07T06:51:35.458Z,1018.79
2017-11-07T06:52:35.501Z,1018.82
2017-11-07T06:53:35.466Z,1018.79
2017-11-07T06:54:35.516Z,1018.82
2017-11-07T06:55:35.477Z,1018.80
2017-11-07T06:56:35.528Z,1018.76
2017-11-07T06:57:35.470Z,1018.77
2017-11-07T06:58:35.549Z,1018.77
2017-11-07T06:59:35.480Z,1018.77
2017-11-07T07:00:35.567Z,1018.75
2017-11-07T07:01:35.485Z,1018.78
2017-11-07T07:02:35.580Z,1018.73
2017-11-07T07:03:35.491Z,1018.76
2017-11-07T07:04:35.591Z,1018.79
2017-11-07T07:05:35.496Z,1018.79
2017-11-07T07:06:35.596Z,1018.73
2017-11-07T07:07:35.506Z,1018.73
2017-11-07T07:08:35.617Z,1018.73
2017-11-07T07:09:35.500Z,1018.65
2017-11-07T07:10:35.541Z,1018.66
2017-11-07T07:11:35.509Z,1018.65
2017-11-07T07:12:35.541Z,1018.65
2017-11-07T07:13:35.522Z,1018.70
2017-11-07T07:14:35.555Z,1018.64
2017-11-07T07:15:35.524Z,1018.68
2017-11-07T07:16:35.566Z,1018.60
2017-11-07T07:17:35.529Z,1018.61
2017-11-07T07:18:35.579Z,1018.64
2017-11-07T07:19:35.525Z,1018.59
2017-11-07T07:20:35.594Z,1018.55
2017-11-07T07:21:35.549Z,1018.62
2017-11-07T07:22:35.604Z,1018.57
2017-11-07T07:23:35.540Z,1018.58
2017-11-07T07:24:35.623Z,1018.62
2017-11-07T07:25:35.550Z,1018.63
2017-11-07T07:26:35.635Z,1018.67
2017-11-07T07:27:35.550Z,1018.60
2017-11-07T07:28:36.673Z,1018.63
2017-11-07T07:29:35.562Z,1018.63
2017-11-07T07:30:35.659Z,1018.58
2017-11-07T07:31:35.558Z,1018.57
2017-11-07T07:32:35.680Z,1018.62
2017-11-07T07:33:35.560Z,1018.58
2017-11-07T07:34:35.595Z,1018.61
2017-11-07T07:35:35.567Z,1018.55
2017-11-07T07:36:35.594Z,1018.56
2017-11-07T07:37:35.583Z,1018.58
2017-11-07T07:38:35.607Z,1018.60
2017-11-07T07:39:35.591Z,1018.51
2017-11-07T07:40:35.620Z,1018.51
2017-11-07T07:41:35.591Z,1018.54
2017-11-07T07:42:36.677Z,1018.52
2017-11-07T07:43:35.594Z,1018.56
2017-11-07T07:44:35.655Z,1018.57
2017-11-07T07:45:35.624Z,1018.55
2017-11-07T07:46:35.673Z,1018.59
2017-11-07T07:47:35.618Z,1018.54
2017-11-07T07:48:35.691Z,1018.52
2017-11-07T07:49:35.609Z,1018.55
2017-11-07T07:50:35.690Z,1018.58
2017-11-07T07:51:35.611Z,1018.50
2017-11-07T07:52:35.709Z,1018.51
2017-11-07T07:53:35.614Z,1018.53
2017-11-07T07:54:35.721Z,1018.51
2017-11-07T07:55:35.628Z,1018.54
2017-11-07T07:56:35.734Z,1018.53
2017-11-07T07:57:35.633Z,1018.50
2017-11-07T07:58:35.759Z,1018.58
2017-11-07T07:59:35.655Z,1018.52
2017-11-07T08:00:35.654Z,1018.49
2017-11-07T08:01:35.631Z,1018.50
2017-11-07T08:02:35.670Z,1018.43
2017-11-07T08:03:35.652Z,1018.44
2017-11-07T08:04:35.686Z,1018.44
2017-11-07T08:05:35.649Z,1018.41
2017-11-07T08:06:35.708Z,1018.45
2017-11-07T08:07:35.658Z,1018.43
2017-11-07T08:08:35.714Z,1018.38
2017-11-07T08:09:35.660Z,1018.40
2017-11-07T08:10:35.728Z,1018.39
2017-11-07T08:11:35.660Z,1018.45
2017-11-07T08:12:35.738Z,1018.38
2017-11-07T08:13:35.670Z,1018.39
2017-11-07T08:14:35.756Z,1018.38
2017-11-07T08:15:35.673Z,1018.38
2017-11-07T08:16:35.765Z,1018.37
2017-11-07T08:17:35.677Z,1018.37
2017-11-07T08:18:35.782Z,1018.41
2017-11-07T08:19:35.680Z,1018.33
2017-11-07T08:20:35.793Z,1018.32
2017-11-07T08:21:35.690Z,1018.35
2017-11-07T08:22:35.806Z,1018.31
2017-11-07T08:23:35.690Z,1018.28
2017-11-07T08:24:35.720Z,1018.27
2017-11-07T08:25:35.705Z,1018.28
2017-11-07T08:26:35.729Z,1018.33
2017-11-07T08:27:35.701Z,1018.28
2017-11-07T08:28:35.749Z,1018.22
2017-11-07T08:29:35.712Z,1018.22
2017-11-07T08:30:35.756Z,1018.25
2017-11-07T08:31:35.717Z,1018.28
2017-11-07T08:32:35.767Z,1018.24
2017-11-07T08:33:35.720Z,1018.27
2017-11-07T08:34:35.782Z,1018.24
2017-11-07T08:35:35.730Z,1018.24
2017-11-07T08:36:35.807Z,1018.26
2017-11-07T08:37:35.729Z,1018.28
2017-11-07T08:38:35.854Z,1018.31
2017-11-07T08:39:35.733Z,1018.29
2017-11-07T08:40:35.826Z,1018.30
2017-11-07T08:41:35.746Z,1018.33
2017-11-07T08:42:35.839Z,1018.29
2017-11-07T08:43:35.750Z,1018.35
2017-11-07T08:44:35.860Z,1018.29
2017-11-07T08:45:35.748Z,1018.28
2017-11-07T08:46:35.869Z,1018.29
2017-11-07T08:47:35.757Z,1018.31
2017-11-07T08:48:35.766Z,1018.33
2017-11-07T08:49:35.778Z,1018.34
2017-11-07T08:50:35.776Z,1018.33
2017-11-07T08:51:35.794Z,1018.27
2017-11-07T08:52:35.772Z,1018.31
2017-11-07T08:53:35.815Z,1018.31
2017-11-07T08:54:35.782Z,1018.32
2017-11-07T08:55:35.791Z,1018.34
2017-11-07T08:56:35.791Z,1018.38
2017-11-07T08:57:35.810Z,1018.37
2017-11-07T08:58:35.795Z,1018.35
2017-11-07T08:59:35.805Z,1018.30
2017-11-07T09:00:35.800Z,1018.29
2017-11-07T09:01:35.803Z,1018.27
2017-11-07T09:02:35.807Z,1018.24
2017-11-07T09:03:35.811Z,1018.23
2017-11-07T09:04:35.816Z,1018.30
2017-11-07T09:05:35.825Z,1018.25
2017-11-07T09:06:35.851Z,1018.25
2017-11-07T09:07:35.846Z,1018.22
2017-11-07T09:08:35.908Z,1018.27
2017-11-07T09:09:35.838Z,1018.28
2017-11-07T09:10:35.923Z,1018.25
2017-11-07T09:11:35.839Z,1018.23
2017-11-07T09:12:35.934Z,1018.25
2017-11-07T09:13:35.840Z,1018.17
2017-11-07T09:14:35.953Z,1018.20
2017-11-07T09:15:35.849Z,1018.26
2017-11-07T09:16:35.964Z,1018.22
2017-11-07T09:17:35.851Z,1018.21
2017-11-07T09:18:35.882Z,1018.21
2017-11-07T09:19:35.872Z,1018.23
2017-11-07T09:20:35.902Z,1018.18
2017-11-07T09:21:35.869Z,1018.18
2017-11-07T09:22:35.879Z,1018.14
2017-11-07T09:23:35.918Z,1018.19
2017-11-07T09:24:35.888Z,1018.14
2017-11-07T09:25:35.930Z,1018.13
2017-11-07T09:26:35.884Z,1018.17
2017-11-07T09:27:35.940Z,1018.10
2017-11-07T09:28:35.896Z,1018.12
2017-11-07T09:29:35.899Z,1018.15
2017-11-07T09:30:35.958Z,1018.10
2017-11-07T09:31:35.906Z,1018.18
2017-11-07T09:32:35.972Z,1018.18
2017-11-07T09:33:35.922Z,1018.18
2017-11-07T09:34:35.984Z,1018.17
2017-11-07T09:35:35.929Z,1018.21
2017-11-07T09:36:35.999Z,1018.12
2017-11-07T09:37:35.937Z,1018.19
2017-11-07T09:38:36.019Z,1018.15
2017-11-07T09:39:35.949Z,1018.16
2017-11-07T09:40:36.027Z,1018.17
2017-11-07T09:41:35.969Z,1018.14
2017-11-07T09:42:36.044Z,1018.09
2017-11-07T09:43:35.954Z,1018.11
2017-11-07T09:44:36.054Z,1018.13
2017-11-07T09:45:35.965Z,1018.13
2017-11-07T09:46:36.071Z,1018.17
2017-11-07T09:47:35.982Z,1018.12
2017-11-07T09:48:36.085Z,1018.08
2017-11-07T09:49:35.976Z,1018.09
2017-11-07T09:50:36.104Z,1018.12
2017-11-07T09:51:36.064Z,1018.16
2017-11-07T09:52:36.000Z,1018.10
2017-11-07T09:53:36.014Z,1018.15
2017-11-07T09:54:35.995Z,1018.10
2017-11-07T09:55:36.032Z,1018.14
2017-11-07T09:56:36.003Z,1018.09
2017-11-07T09:57:36.157Z,1018.07
2017-11-07T09:58:36.024Z,1018.08
2017-11-07T09:59:36.055Z,1018.09
2017-11-07T10:00:36.020Z,1018.04
2017-11-07T10:01:36.168Z,1018.02
2017-11-07T10:02:36.025Z,1018.03
2017-11-07T10:03:36.059Z,1017.96
2017-11-07T10:04:36.040Z,1017.95
2017-11-07T10:05:36.069Z,1017.93
2017-11-07T10:06:36.038Z,1017.85
2017-11-07T10:07:36.082Z,1017.85
2017-11-07T10:08:36.050Z,1017.85
2017-11-07T10:09:36.093Z,1017.80
2017-11-07T10:10:36.055Z,1017.86
2017-11-07T10:11:36.104Z,1017.83
2017-11-07T10:12:36.062Z,1017.81
2017-11-07T10:13:37.145Z,1017.75
2017-11-07T10:14:36.079Z,1017.74
2017-11-07T10:15:36.136Z,1017.73
2017-11-07T10:16:36.094Z,1017.76
2017-11-07T10:17:36.153Z,1017.67
2017-11-07T10:18:36.091Z,1017.66
2017-11-07T10:19:36.160Z,1017.73
2017-11-07T10:20:36.134Z,1017.63
2017-11-07T10:21:36.174Z,1017.64
2017-11-07T10:22:36.103Z,1017.57
2017-11-07T10:23:36.213Z,1017.59
2017-11-07T10:24:36.111Z,1017.59
2017-11-07T10:25:36.217Z,1017.56
2017-11-07T10:26:36.123Z,1017.53
2017-11-07T10:27:36.233Z,1017.55
2017-11-07T10:28:36.130Z,1017.51
2017-11-07T10:29:36.248Z,1017.52
2017-11-07T10:30:36.126Z,1017.51
2017-11-07T10:31:36.159Z,1017.46
2017-11-07T10:32:36.142Z,1017.46
2017-11-07T10:33:36.187Z,1017.41
2017-11-07T10:34:36.144Z,1017.43
2017-11-07T10:35:36.184Z,1017.41
2017-11-07T10:36:36.151Z,1017.38
2017-11-07T10:37:36.194Z,1017.37
2017-11-07T10:38:36.157Z,1017.34
2017-11-07T10:39:36.208Z,1017.35
2017-11-07T10:40:36.171Z,1017.34
2017-11-07T10:41:36.224Z,1017.28
2017-11-07T10:42:36.171Z,1017.29
2017-11-07T10:43:36.261Z,1017.28
2017-11-07T10:44:36.183Z,1017.15
2017-11-07T10:45:36.250Z,1017.16
2017-11-07T10:46:36.184Z,1017.11
2017-11-07T10:47:36.261Z,1017.11
2017-11-07T10:48:36.196Z,1017.17
2017-11-07T10:49:36.276Z,1017.19
2017-11-07T10:50:36.210Z,1017.11
2017-11-07T10:51:36.288Z,1017.01
2017-11-07T10:52:36.225Z,1017.07
2017-11-07T10:53:36.304Z,1017.04
2017-11-07T10:54:36.218Z,1017.00
2017-11-07T10:55:36.312Z,1016.98
2017-11-07T10:56:36.217Z,1017.01
2017-11-07T10:57:36.327Z,1016.99
2017-11-07T10:58:36.264Z,1017.01
2017-11-07T10:59:36.342Z,1017.07
2017-11-07T11:00:36.234Z,1017.03
2017-11-07T11:01:36.253Z,1017.03
2017-11-07T11:02:36.239Z,1017.01
2017-11-07T11:03:36.266Z,1017.01
2017-11-07T11:04:36.246Z,1016.97
2017-11-07T11:05:36.285Z,1017.03
2017-11-07T11:06:36.256Z,1016.97
2017-11-07T11:07:36.292Z,1016.84
2017-11-07T11:08:36.263Z,1016.91
2017-11-07T11:09:36.306Z,1016.84
2017-11-07T11:10:36.296Z,1016.80
2017-11-07T11:11:36.325Z,1016.75
2017-11-07T11:12:36.284Z,1016.79
2017-11-07T11:13:36.336Z,1016.72
2017-11-07T11:14:36.280Z,1016.66
2017-11-07T11:15:36.350Z,1016.67
2017-11-07T11:16:36.288Z,1016.69
2017-11-07T11:17:36.392Z,1016.64
2017-11-07T11:18:36.297Z,1016.66
2017-11-07T11:19:36.381Z,1016.63
2017-11-07T11:20:36.301Z,1016.62
2017-11-07T11:21:36.390Z,1016.64
2017-11-07T11:22:36.321Z,1016.55
2017-11-07T11:23:36.402Z,1016.54
2017-11-07T11:24:36.312Z,1016.56
2017-11-07T11:25:36.428Z,1016.53
2017-11-07T11:26:36.340Z,1016.50
2017-11-07T11:27:36.432Z,1016.48
2017-11-07T11:28:36.330Z,1016.48
2017-11-07T11:29:36.453Z,1016.49
2017-11-07T11:30:36.330Z,1016.43
2017-11-07T11:31:37.414Z,1016.40
2017-11-07T11:32:36.346Z,1016.41
2017-11-07T11:33:36.370Z,1016.44
2017-11-07T11:34:36.350Z,1016.42
2017-11-07T11:35:36.384Z,1016.46
2017-11-07T11:36:36.353Z,1016.43
2017-11-07T11:37:36.398Z,1016.39
2017-11-07T11:38:36.385Z,1016.42
2017-11-07T11:39:36.427Z,1016.45
2017-11-07T11:40:36.376Z,1016.45
2017-11-07T11:41:36.426Z,1016.43
2017-11-07T11:42:36.373Z,1016.46
2017-11-07T11:43:36.439Z,1016.43
2017-11-07T11:44:36.400Z,1016.44
2017-11-07T11:45:36.454Z,1016.38
2017-11-07T11:46:36.395Z,1016.34
2017-11-07T11:47:36.464Z,1016.40
2017-11-07T11:48:36.393Z,1016.31
2017-11-07T11:49:36.481Z,1016.40
2017-11-07T11:50:36.402Z,1016.34
2017-11-07T11:51:36.493Z,1016.34
2017-11-07T11:52:36.427Z,1016.29
2017-11-07T11:53:36.503Z,1016.30
2017-11-07T11:54:36.428Z,1016.30
2017-11-07T11:55:36.522Z,1016.29
2017-11-07T11:56:36.428Z,1016.31
2017-11-07T11:57:36.534Z,1016.35
2017-11-07T11:58:36.428Z,1016.34
2017-11-07T11:59:37.479Z,1016.35
2017-11-07T12:00:36.440Z,1016.33
2017-11-07T12:01:36.467Z,1016.34
2017-11-07T12:02:36.441Z,1016.30
2017-11-07T12:03:36.498Z,1016.29
2017-11-07T12:04:36.447Z,1016.25
2017-11-07T12:05:36.493Z,1016.22